Time;durP1;ratioP1;P1;durP2;ratioP2;P2;SDS_P1;SDS_P2;PMS_P1;PMS_P2;Temp;Humidity;BMP_temperature;BMP_pressure;BME280_temperature;BME280_humidity;BME280_pressure;Samples;Min_cycle;Max_cycle;Signal;HPM_P1;HPM_P2
2023/06/06 00:01:43;;;;;;;0.52;0.50;;;11.00;1.00;;;;;;4813090;29;20054;-90
2023/06/06 00:04:09;;;;;;;0.40;0.40;;;11.00;1.00;;;;;;4825285;29;20208;-91
2023/06/06 00:06:35;;;;;;;0.93;0.50;;;11.00;1.00;;;;;;4829794;29;20145;-91
2023/06/06 00:09:05;;;;;;;0.73;0.50;;;10.90;1.00;;;;;;4836639;29;20045;-90
2023/06/06 00:11:32;;;;;;;1.27;1.23;;;10.90;1.00;;;;;;4842497;29;20090;-90
2023/06/06 00:13:58;;;;;;;0.55;0.50;;;10.90;1.00;;;;;;4843045;29;20053;-90
2023/06/06 00:16:27;;;;;;;0.55;0.55;;;10.70;1.00;;;;;;4842085;29;20065;-89
2023/06/06 00:18:55;;;;;;;2.30;0.50;;;10.80;1.00;;;;;;4862485;29;20065;-90
2023/06/06 00:21:21;;;;;;;0.65;0.60;;;10.80;1.00;;;;;;4868001;29;20077;-87
2023/06/06 00:23:47;;;;;;;1.45;0.60;;;10.70;1.00;;;;;;4862576;29;20054;-89
2023/06/06 00:26:13;;;;;;;0.80;0.80;;;10.70;1.00;;;;;;4833555;29;20049;-90
2023/06/06 00:28:39;;;;;;;1.23;1.10;;;10.70;1.00;;;;;;4846013;29;20101;-91
2023/06/06 00:31:05;;;;;;;0.40;0.40;;;10.70;1.00;;;;;;4846798;29;20059;-91
2023/06/06 00:33:30;;;;;;;0.57;0.50;;;10.80;1.00;;;;;;4861537;29;20045;-91
2023/06/06 00:35:56;;;;;;;0.40;0.30;;;10.80;1.00;;;;;;4859776;29;20045;-91
2023/06/06 00:38:22;;;;;;;0.63;0.63;;;10.80;1.00;;;;;;4847338;29;20113;-91
2023/06/06 00:40:48;;;;;;;0.63;0.40;;;10.90;1.00;;;;;;4831395;29;20052;-90
2023/06/06 00:43:13;;;;;;;0.60;0.60;;;10.90;1.00;;;;;;4861148;29;20041;-91
2023/06/06 00:45:39;;;;;;;0.60;0.60;;;10.90;1.00;;;;;;4878481;29;20048;-91
2023/06/06 00:48:05;;;;;;;1.17;0.60;;;10.90;1.00;;;;;;4862547;29;20068;-91
2023/06/06 00:50:32;;;;;;;0.80;0.80;;;10.80;1.00;;;;;;4860616;29;20117;-90
2023/06/06 00:52:58;;;;;;;;;;;10.70;1.00;;;;;;4830900;29;20065;-90
2023/06/06 00:55:24;;;;;;;0.47;0.47;;;10.80;1.00;;;;;;4825177;29;19970;-90
2023/06/06 00:57:51;;;;;;;0.85;0.77;;;10.90;1.00;;;;;;4841208;29;20052;-91
2023/06/06 01:00:18;;;;;;;0.90;0.47;;;10.80;1.00;;;;;;4861412;29;20048;-91
2023/06/06 01:02:47;;;;;;;0.55;0.40;;;10.80;1.00;;;;;;4874262;29;20108;-89
2023/06/06 01:05:15;;;;;;;1.13;0.73;;;10.80;1.00;;;;;;4858200;29;20052;-91
2023/06/06 01:07:43;;;;;;;0.88;0.50;;;10.80;1.00;;;;;;4861980;29;20060;-91
2023/06/06 01:10:10;;;;;;;0.73;0.73;;;10.80;1.00;;;;;;4847278;29;20061;-91
2023/06/06 01:12:51;;;;;;;0.30;0.28;;;10.80;1.00;;;;;;4860602;29;20060;-90
2023/06/06 01:15:22;;;;;;;0.95;0.68;;;10.70;1.00;;;;;;4845903;29;20060;-90
2023/06/06 01:17:49;;;;;;;1.02;0.40;;;10.70;1.00;;;;;;4860659;29;20068;-91
2023/06/06 01:20:16;;;;;;;0.75;0.60;;;10.70;1.00;;;;;;4845520;29;20054;-90
2023/06/06 01:22:43;;;;;;;;;;;10.70;1.00;;;;;;4840871;29;20057;-90
2023/06/06 01:25:10;;;;;;;0.30;0.30;;;10.60;1.00;;;;;;4820529;29;19935;-91
2023/06/06 01:27:36;;;;;;;0.63;0.32;;;10.60;1.00;;;;;;4828881;29;20048;-90
2023/06/06 01:30:03;;;;;;;0.53;0.43;;;10.50;1.00;;;;;;4830737;29;20054;-90
2023/06/06 01:32:56;;;;;;;0.57;0.40;;;10.50;1.00;;;;;;4826406;29;20060;-90
2023/06/06 01:35:36;;;;;;;0.30;0.30;;;10.40;1.00;;;;;;4826735;29;20076;-90
2023/06/06 01:38:15;;;;;;;0.45;0.45;;;10.40;1.00;;;;;;4826445;29;20096;-90
2023/06/06 01:40:42;;;;;;;0.65;0.60;;;10.40;1.00;;;;;;4825821;29;20431;-90
2023/06/06 01:43:10;;;;;;;0.50;0.50;;;10.40;1.00;;;;;;4826101;29;20504;-91
2023/06/06 01:45:38;;;;;;;1.20;1.10;;;10.30;1.00;;;;;;4824831;29;20046;-88
2023/06/06 01:48:04;;;;;;;0.75;0.50;;;10.20;1.00;;;;;;4826201;29;20107;-90
2023/06/06 01:50:32;;;;;;;0.95;0.70;;;10.20;1.00;;;;;;4826184;29;20054;-90
2023/06/06 01:52:58;;;;;;;0.40;0.40;;;10.20;1.00;;;;;;4824318;29;20054;-90
2023/06/06 01:55:23;;;;;;;0.40;0.30;;;10.10;1.00;;;;;;4810167;29;20046;-90
2023/06/06 01:57:49;;;;;;;0.47;0.47;;;10.10;2.60;;;;;;4823607;29;20053;-90
2023/06/06 02:00:16;;;;;;;0.60;0.60;;;10.00;15.40;;;;;;4824380;29;20053;-90
2023/06/06 02:02:42;;;;;;;0.57;0.57;;;10.00;11.40;;;;;;4814504;29;20060;-90
2023/06/06 02:05:08;;;;;;;0.85;0.60;;;9.90;13.40;;;;;;4826164;29;20049;-90
2023/06/06 02:07:34;;;;;;;0.80;0.80;;;9.90;17.40;;;;;;4820360;29;20037;-89
2023/06/06 02:10:00;;;;;;;;;;;9.90;24.70;;;;;;4833840;29;20050;-89
2023/06/06 02:12:26;;;;;;;0.20;0.20;;;9.90;53.40;;;;;;4839281;29;19924;-89
2023/06/06 02:14:54;;;;;;;0.60;0.60;;;9.90;31.30;;;;;;4823495;29;20042;-91
2023/06/06 02:17:21;;;;;;;0.32;0.32;;;9.90;40.10;;;;;;4828749;29;20046;-90
2023/06/06 02:19:46;;;;;;;;;;;9.90;30.00;;;;;;4810556;29;20057;-90
2023/06/06 02:22:13;;;;;;;1.02;0.55;;;9.90;52.90;;;;;;4823467;29;19928;-91
2023/06/06 02:24:40;;;;;;;1.10;1.02;;;9.90;27.20;;;;;;4862404;29;20469;-90
2023/06/06 02:27:09;;;;;;;0.43;0.43;;;9.80;21.60;;;;;;4812462;29;20557;-90
2023/06/06 02:29:38;;;;;;;0.80;0.52;;;9.80;22.20;;;;;;4814333;29;20058;-90
2023/06/06 02:32:04;;;;;;;0.77;0.50;;;9.80;23.50;;;;;;4829746;29;20472;-90
2023/06/06 02:34:30;;;;;;;0.70;0.52;;;9.80;22.00;;;;;;4839367;29;20073;-91
2023/06/06 02:36:59;;;;;;;0.63;0.60;;;9.80;25.00;;;;;;4840752;29;20077;-90
2023/06/06 02:39:25;;;;;;;1.40;0.82;;;9.80;26.00;;;;;;4843651;29;20073;-91
2023/06/06 02:41:51;;;;;;;0.30;0.30;;;9.80;26.10;;;;;;4838517;29;20076;-90
2023/06/06 02:44:19;;;;;;;0.43;0.43;;;9.80;38.20;;;;;;4845056;29;20128;-90
2023/06/06 02:46:45;;;;;;;0.55;0.55;;;9.70;30.50;;;;;;4838681;29;20077;-86
2023/06/06 02:49:11;;;;;;;1.07;0.97;;;9.80;30.00;;;;;;4829093;29;20085;-90
2023/06/06 02:51:37;;;;;;;5.97;0.93;;;9.80;24.70;;;;;;4822442;29;20544;-90
2023/06/06 02:54:03;;;;;;;0.38;0.35;;;9.90;23.60;;;;;;4829152;29;20057;-90
2023/06/06 02:56:29;;;;;;;1.67;1.15;;;9.80;25.50;;;;;;4849938;29;20140;-90
2023/06/06 02:58:55;;;;;;;0.40;0.40;;;9.90;24.90;;;;;;4842056;29;20446;-90
2023/06/06 03:01:21;;;;;;;1.03;0.60;;;9.90;24.20;;;;;;4845272;29;20581;-90
2023/06/06 03:03:47;;;;;;;0.67;0.50;;;9.90;25.10;;;;;;4814133;29;20318;-87
2023/06/06 03:06:15;;;;;;;1.67;0.50;;;9.90;19.10;;;;;;4829597;29;20057;-90
2023/06/06 03:08:44;;;;;;;1.20;0.60;;;10.00;19.70;;;;;;4841622;29;20056;-90
2023/06/06 03:11:10;;;;;;;0.55;0.55;;;10.00;13.50;;;;;;4832792;29;20109;-88
2023/06/06 03:13:36;;;;;;;0.63;0.53;;;9.90;10.80;;;;;;4839776;29;20053;-90
2023/06/06 03:16:02;;;;;;;1.67;0.65;;;9.90;13.10;;;;;;4827194;29;20046;-90
2023/06/06 03:18:28;;;;;;;0.30;0.30;;;9.80;22.80;;;;;;4839752;29;20497;-89
2023/06/06 03:20:54;;;;;;;0.60;0.60;;;9.80;26.70;;;;;;4824790;29;20053;-90
2023/06/06 03:23:21;;;;;;;0.83;0.70;;;9.70;24.60;;;;;;4838354;29;20050;-88
2023/06/06 03:25:51;;;;;;;0.82;0.60;;;9.70;30.20;;;;;;4828444;29;20045;-90
2023/06/06 03:28:18;;;;;;;0.65;0.65;;;9.70;28.40;;;;;;4819536;29;20045;-90
2023/06/06 03:30:48;;;;;;;0.45;0.45;;;9.70;31.10;;;;;;4816156;29;20054;-91
2023/06/06 03:33:14;;;;;;;0.45;0.45;;;9.60;39.00;;;;;;4827497;29;20056;-91
2023/06/06 03:35:40;;;;;;;0.50;0.50;;;9.70;35.10;;;;;;4818253;29;20057;-90
2023/06/06 03:38:06;;;;;;;0.68;0.47;;;9.60;44.30;;;;;;4837158;29;20046;-90
2023/06/06 03:40:32;;;;;;;2.17;1.00;;;9.60;66.40;;;;;;4844404;29;20057;-90
2023/06/06 03:42:57;;;;;;;0.70;0.70;;;9.60;66.90;;;;;;4827137;29;20555;-90
2023/06/06 03:45:24;;;;;;;1.90;0.80;;;9.60;62.80;;;;;;4844213;29;20045;-90
2023/06/06 03:47:51;;;;;;;0.50;0.50;;;9.60;68.80;;;;;;4827892;29;20060;-90
2023/06/06 03:50:21;;;;;;;0.50;0.50;;;9.60;66.50;;;;;;4811308;29;20058;-89
2023/06/06 03:52:47;;;;;;;0.88;0.65;;;9.70;63.90;;;;;;4827209;29;20062;-90
2023/06/06 03:55:13;;;;;;;0.68;0.60;;;9.70;66.00;;;;;;4826954;29;20106;-90
2023/06/06 03:57:40;;;;;;;1.50;0.80;;;9.70;67.20;;;;;;4841559;29;20408;-90
2023/06/06 04:00:11;;;;;;;1.00;0.95;;;9.70;66.10;;;;;;4835581;29;20054;-90
2023/06/06 04:02:38;;;;;;;0.70;0.50;;;9.80;63.00;;;;;;4840873;29;20053;-90
2023/06/06 04:05:04;;;;;;;;;;;9.80;61.10;;;;;;4840541;29;20489;-89
2023/06/06 04:07:31;;;;;;;0.40;0.40;;;9.80;83.00;;;;;;4839758;29;19924;-90
2023/06/06 04:09:57;;;;;;;0.40;0.40;;;9.80;73.60;;;;;;4842280;29;20063;-87
2023/06/06 04:12:23;;;;;;;1.30;0.95;;;9.80;74.10;;;;;;4841387;29;20045;-90
2023/06/06 04:14:49;;;;;;;0.77;0.77;;;9.80;68.70;;;;;;4843875;29;20049;-90
2023/06/06 04:17:15;;;;;;;0.83;0.80;;;9.80;69.50;;;;;;4860125;29;20081;-90
2023/06/06 04:19:40;;;;;;;1.03;0.53;;;9.80;67.70;;;;;;4835829;29;20501;-90
2023/06/06 04:22:06;;;;;;;0.50;0.47;;;9.80;74.00;;;;;;4841038;29;20049;-90
2023/06/06 04:24:32;;;;;;;0.50;0.50;;;9.90;77.10;;;;;;4859215;29;20042;-89
2023/06/06 04:27:03;;;;;;;0.57;0.57;;;9.90;75.80;;;;;;4827332;29;20049;-90
2023/06/06 04:29:33;;;;;;;0.50;0.35;;;9.90;69.30;;;;;;4823897;29;20058;-90
2023/06/06 04:32:00;;;;;;;0.35;0.30;;;10.00;68.60;;;;;;4824895;29;20069;-87
2023/06/06 04:34:29;;;;;;;;;;;10.00;74.20;;;;;;4824766;29;20133;-90
2023/06/06 04:37:04;;;;;;;0.45;0.40;;;10.10;90.90;;;;;;4825018;29;19925;-89
2023/06/06 04:39:35;;;;;;;0.40;0.40;;;10.10;85.90;;;;;;4823834;29;20042;-90
2023/06/06 04:42:05;;;;;;;0.30;0.30;;;10.10;81.20;;;;;;4826010;29;20515;-87
2023/06/06 04:44:41;;;;;;;0.95;0.70;;;10.20;86.80;;;;;;4793437;29;20050;-89
2023/06/06 04:47:08;;;;;;;0.47;0.40;;;10.20;79.10;;;;;;4807943;29;20502;-89
2023/06/06 04:49:38;;;;;;;0.52;0.43;;;10.30;78.70;;;;;;4809941;29;20401;-90
2023/06/06 04:52:12;;;;;;;1.13;0.50;;;10.40;71.10;;;;;;4825090;29;20049;-88
2023/06/06 04:54:41;;;;;;;0.35;0.35;;;10.40;75.50;;;;;;4825557;29;20168;-90
2023/06/06 04:57:16;;;;;;;0.88;0.60;;;10.50;79.50;;;;;;4840191;29;20062;-90
2023/06/06 04:59:50;;;;;;;0.60;0.60;;;10.60;77.30;;;;;;4822487;29;20083;-89
2023/06/06 05:02:20;;;;;;;0.50;0.50;;;10.70;75.70;;;;;;4808020;29;20183;-90
2023/06/06 05:04:52;;;;;;;0.47;0.47;;;10.80;67.50;;;;;;4824632;29;20397;-90
2023/06/06 05:07:18;;;;;;;1.35;0.88;;;10.80;70.60;;;;;;4825414;29;20057;-87
2023/06/06 05:09:44;;;;;;;0.82;0.82;;;11.20;61.40;;;;;;4813719;29;20041;-87
2023/06/06 05:12:10;;;;;;;0.77;0.63;;;11.80;48.50;;;;;;4829455;29;20124;-88
2023/06/06 05:14:35;;;;;;;0.22;0.22;;;12.60;25.10;;;;;;4825543;29;20355;-88
2023/06/06 05:17:01;;;;;;;0.40;0.40;;;13.20;3.30;;;;;;4822527;29;20042;-90
2023/06/06 05:19:27;;;;;;;0.73;0.73;;;13.80;1.00;;;;;;4847704;29;20144;-90
2023/06/06 05:21:53;;;;;;;0.20;0.20;;;14.30;1.00;;;;;;4815309;29;20324;-90
2023/06/06 05:24:18;;;;;;;0.50;0.50;;;14.70;1.00;;;;;;4826618;29;20049;-90
2023/06/06 05:26:44;;;;;;;0.50;0.50;;;15.00;1.00;;;;;;4829243;29;20054;-90
2023/06/06 05:29:10;;;;;;;1.33;0.33;;;15.30;1.00;;;;;;4834837;29;20061;-89
2023/06/06 05:31:37;;;;;;;0.20;0.20;;;15.40;1.00;;;;;;4825647;29;20383;-89
2023/06/06 05:34:03;;;;;;;1.27;0.35;;;15.60;1.00;;;;;;4826136;29;20065;-83
2023/06/06 05:36:29;;;;;;;0.35;0.35;;;15.80;1.00;;;;;;4827848;29;20045;-86
2023/06/06 05:38:55;;;;;;;0.60;0.40;;;15.90;1.00;;;;;;4848405;29;20065;-87
2023/06/06 05:41:23;;;;;;;1.25;0.75;;;16.00;1.00;;;;;;4832249;29;20042;-87
2023/06/06 05:43:50;;;;;;;0.50;0.50;;;16.20;1.00;;;;;;4826709;29;20457;-87
2023/06/06 05:46:15;;;;;;;0.43;0.30;;;16.40;1.00;;;;;;4825770;29;20050;-87
2023/06/06 05:48:41;;;;;;;0.43;0.43;;;16.50;1.00;;;;;;4840274;29;20061;-85
2023/06/06 05:51:08;;;;;;;0.88;0.75;;;16.50;1.00;;;;;;4825899;29;20302;-89
2023/06/06 05:53:34;;;;;;;;;;;16.50;1.00;;;;;;4825765;29;20501;-88
2023/06/06 05:56:00;;;;;;;1.15;0.40;;;16.40;99.90;;;;;;4825671;29;19984;-88
2023/06/06 05:58:26;;;;;;;0.47;0.47;;;16.30;1.00;;;;;;4840767;29;20095;-88
2023/06/06 06:00:52;;;;;;;0.75;0.63;;;16.30;1.00;;;;;;4825657;29;20046;-89
2023/06/06 06:03:18;;;;;;;0.70;0.70;;;16.30;1.00;;;;;;4824282;29;20069;-87
2023/06/06 06:05:44;;;;;;;0.45;0.40;;;16.40;1.00;;;;;;4860336;29;20154;-87
2023/06/06 06:08:10;;;;;;;0.95;0.47;;;16.30;1.00;;;;;;4860277;29;20052;-87
2023/06/06 06:10:37;;;;;;;0.70;0.70;;;16.30;1.00;;;;;;4856407;29;20046;-87
2023/06/06 06:13:04;;;;;;;1.27;0.28;;;16.40;1.00;;;;;;4836635;29;20401;-87
2023/06/06 06:15:31;;;;;;;0.75;0.75;;;16.60;1.00;;;;;;4826023;29;20042;-83
2023/06/06 06:17:57;;;;;;;1.42;0.70;;;16.70;1.00;;;;;;4853949;29;20049;-83
2023/06/06 06:20:23;;;;;;;0.60;0.60;;;16.90;1.00;;;;;;4867994;29;20487;-84
2023/06/06 06:22:49;;;;;;;0.82;0.60;;;16.90;1.00;;;;;;4852761;29;20314;-86
2023/06/06 06:25:16;;;;;;;0.55;0.40;;;17.00;99.90;;;;;;4853393;29;20049;-84
2023/06/06 06:27:43;;;;;;;0.30;0.30;;;17.10;99.90;;;;;;4857371;29;20053;-84
2023/06/06 06:30:10;;;;;;;0.38;0.38;;;16.90;99.90;;;;;;4857827;29;20046;-84
2023/06/06 06:32:41;;;;;;;1.42;0.75;;;17.00;1.00;;;;;;4857562;29;20063;-85
2023/06/06 06:35:11;;;;;;;0.32;0.30;;;17.00;1.00;;;;;;4872536;29;20060;-84
2023/06/06 06:37:37;;;;;;;1.50;0.50;;;16.90;1.00;;;;;;4827189;29;20451;-84
2023/06/06 06:40:09;;;;;;;1.02;0.85;;;16.80;1.00;;;;;;4841962;29;20077;-85
2023/06/06 06:42:43;;;;;;;0.25;0.25;;;16.90;99.90;;;;;;4841445;29;20067;-84
2023/06/06 06:45:13;;;;;;;0.55;0.40;;;16.90;1.00;;;;;;4838993;29;20558;-84
2023/06/06 06:47:43;;;;;;;0.40;0.40;;;16.80;1.00;;;;;;4839944;29;20405;-87
2023/06/06 06:50:10;;;;;;;0.40;0.40;;;16.80;1.00;;;;;;4839784;29;20050;-86
2023/06/06 06:52:36;;;;;;;0.20;0.20;;;16.90;1.00;;;;;;4838956;29;20057;-84
2023/06/06 06:55:06;;;;;;;0.47;0.47;;;17.00;1.00;;;;;;4840475;29;20068;-85
2023/06/06 06:57:36;;;;;;;0.47;0.45;;;17.30;1.00;;;;;;4856184;29;20110;-91
2023/06/06 07:00:14;;;;;;;1.23;0.40;;;17.30;1.00;;;;;;4836366;29;20061;-83
2023/06/06 07:02:42;;;;;;;0.40;0.40;;;17.20;1.00;;;;;;4871372;29;20112;-83
2023/06/06 07:05:09;;;;;;;0.63;0.63;;;17.20;1.00;;;;;;4867755;29;20049;-84
2023/06/06 07:07:42;;;;;;;1.02;0.40;;;17.40;1.00;;;;;;4856051;29;20539;-83
2023/06/06 07:10:08;;;;;;;0.20;0.20;;;17.50;1.00;;;;;;4852052;29;20037;-84
2023/06/06 07:12:34;;;;;;;0.20;0.20;;;17.40;99.90;;;;;;4863995;29;20138;-84
2023/06/06 07:14:59;;;;;;;0.43;0.43;;;17.60;99.90;;;;;;4855099;29;20781;-85
2023/06/06 07:17:26;;;;;;;0.38;0.38;;;17.70;99.90;;;;;;4865733;29;20125;-84
2023/06/06 07:19:52;;;;;;;0.50;0.50;;;17.70;99.90;;;;;;4851353;29;20061;-84
2023/06/06 07:22:18;;;;;;;0.75;0.52;;;17.90;99.90;;;;;;4841820;29;20493;-84
2023/06/06 07:24:45;;;;;;;0.40;0.30;;;18.00;99.90;;;;;;4826291;29;20451;-84
2023/06/06 07:27:13;;;;;;;0.43;0.30;;;18.00;99.90;;;;;;4826655;29;20056;-85
2023/06/06 07:29:39;;;;;;;0.20;0.20;;;18.10;99.90;;;;;;4842176;29;20148;-88
2023/06/06 07:32:05;;;;;;;0.50;0.47;;;18.30;99.90;;;;;;4826340;29;20057;-84
2023/06/06 07:34:31;;;;;;;0.28;0.25;;;18.50;99.90;;;;;;4844646;29;20405;-84
2023/06/06 07:36:58;;;;;;;0.57;0.55;;;18.70;99.90;;;;;;4826838;29;20405;-85
2023/06/06 07:39:23;;;;;;;0.32;0.32;;;18.90;99.90;;;;;;4826185;29;20057;-84
2023/06/06 07:41:49;;;;;;;0.22;0.15;;;19.00;99.90;;;;;;4841556;29;20109;-83
2023/06/06 07:44:16;;;;;;;0.50;0.35;;;19.10;1.00;;;;;;4842878;29;20141;-84
2023/06/06 07:46:42;;;;;;;0.57;0.57;;;19.20;1.00;;;;;;4827892;29;20599;-83
2023/06/06 07:49:08;;;;;;;0.28;0.28;;;19.30;1.00;;;;;;4843800;29;20080;-85
2023/06/06 07:51:34;;;;;;;0.35;0.35;;;19.50;1.00;;;;;;4841922;29;20038;-84
2023/06/06 07:54:00;;;;;;;0.32;0.32;;;19.70;99.90;;;;;;4826032;29;20053;-85
2023/06/06 07:56:27;;;;;;;0.30;0.30;;;19.60;12.50;;;;;;4825804;29;20061;-84
2023/06/06 07:58:54;;;;;;;0.30;0.30;;;19.70;99.90;;;;;;4824615;29;20061;-86
2023/06/06 08:01:20;;;;;;;0.30;0.30;;;19.70;99.90;;;;;;4845443;29;20045;-87
2023/06/06 08:03:54;;;;;;;0.65;0.55;;;19.70;99.90;;;;;;4842829;29;20046;-86
2023/06/06 08:06:27;;;;;;;0.52;0.52;;;19.70;1.00;;;;;;4842090;29;20121;-87
2023/06/06 08:08:53;;;;;;;0.40;0.35;;;19.70;99.90;;;;;;4825988;29;20058;-86
2023/06/06 08:11:19;;;;;;;0.65;0.50;;;19.70;99.90;;;;;;4844012;29;20037;-85
2023/06/06 08:13:45;;;;;;;0.40;0.40;;;19.70;1.00;;;;;;4825917;29;20045;-87
2023/06/06 08:16:11;;;;;;;0.55;0.30;;;19.70;99.90;;;;;;4844404;29;20046;-86
2023/06/06 08:18:40;;;;;;;0.93;0.93;;;19.70;99.90;;;;;;4841530;29;20069;-85
2023/06/06 08:21:05;;;;;;;0.40;0.40;;;19.60;99.90;;;;;;4832719;29;20466;-86
2023/06/06 08:23:31;;;;;;;0.75;0.60;;;19.60;99.90;;;;;;4813619;29;20053;-85
2023/06/06 08:25:57;;;;;;;0.35;0.35;;;19.50;99.90;;;;;;4829767;29;20103;-86
2023/06/06 08:28:24;;;;;;;0.45;0.45;;;19.50;99.90;;;;;;4836793;29;20665;-87
2023/06/06 08:30:51;;;;;;;1.05;0.95;;;19.50;99.90;;;;;;4827375;29;20049;-87
2023/06/06 08:33:18;;;;;;;0.40;0.40;;;19.60;1.00;;;;;;4834419;29;20052;-87
2023/06/06 08:35:44;;;;;;;0.35;0.35;;;19.70;99.90;;;;;;4836097;29;20056;-87
2023/06/06 08:38:10;;;;;;;0.88;0.88;;;19.80;99.90;;;;;;4859494;29;20410;-88
2023/06/06 08:40:36;;;;;;;1.05;0.40;;;19.90;99.90;;;;;;4858951;29;20109;-87
2023/06/06 08:43:04;;;;;;;0.55;0.55;;;20.00;99.90;;;;;;4837104;29;20401;-87
2023/06/06 08:45:32;;;;;;;0.43;0.30;;;20.00;99.90;;;;;;4840957;29;20081;-88
2023/06/06 08:48:01;;;;;;;0.43;0.43;;;20.00;7.60;;;;;;4854909;29;20103;-85
2023/06/06 08:50:30;;;;;;;0.50;0.40;;;20.00;1.00;;;;;;4836433;29;20054;-88
2023/06/06 08:52:56;;;;;;;0.40;0.40;;;19.90;71.70;;;;;;4829115;29;20497;-87
2023/06/06 08:55:22;;;;;;;0.30;0.30;;;20.10;1.00;;;;;;4822054;29;20046;-86
2023/06/06 08:57:50;;;;;;;0.95;0.95;;;20.20;99.90;;;;;;4857835;29;20144;-88
2023/06/06 09:00:21;;;;;;;0.35;0.35;;;20.10;99.90;;;;;;4832199;29;20053;-86
2023/06/06 09:02:47;;;;;;;0.73;0.60;;;20.00;99.90;;;;;;4824592;29;20492;-86
2023/06/06 09:05:16;;;;;;;0.52;0.52;;;19.90;99.90;;;;;;4834921;29;20098;-87
2023/06/06 09:07:42;;;;;;;0.70;0.70;;;19.90;99.90;;;;;;4831583;29;20064;-88
2023/06/06 09:10:08;;;;;;;0.60;0.60;;;20.00;99.90;;;;;;4817594;29;20049;-85
2023/06/06 09:12:40;;;;;;;2.42;0.38;;;20.10;1.00;;;;;;4839660;29;20084;-88
2023/06/06 09:15:07;;;;;;;0.63;0.50;;;20.20;99.90;;;;;;4859131;29;20143;-88
2023/06/06 09:17:37;;;;;;;0.65;0.65;;;20.40;99.90;;;;;;4830469;29;20066;-86
2023/06/06 09:20:07;;;;;;;1.35;0.40;;;20.40;99.90;;;;;;4824841;29;20061;-86
2023/06/06 09:22:41;;;;;;;1.02;0.60;;;20.40;99.90;;;;;;4859243;29;20053;-86
2023/06/06 09:25:17;;;;;;;0.40;0.32;;;20.50;1.00;;;;;;4841117;29;20049;-87
2023/06/06 09:27:43;;;;;;;;;;;20.50;1.00;;;;;;4826728;29;20054;-86
2023/06/06 09:30:23;;;;;;;0.88;0.80;;;20.50;99.90;;;;;;4837626;29;19935;-89
2023/06/06 09:33:00;;;;;;;0.30;0.30;;;20.60;99.90;;;;;;4826471;29;20054;-87
2023/06/06 09:35:36;;;;;;;0.77;0.68;;;20.60;99.90;;;;;;4837400;29;20049;-85
2023/06/06 09:38:09;;;;;;;;;;;20.60;99.90;;;;;;4858862;29;20512;-85
2023/06/06 09:40:46;;;;;;;0.28;0.28;;;20.50;99.90;;;;;;4840750;29;20363;-85
2023/06/06 09:43:12;;;;;;;1.08;0.55;;;20.50;99.90;;;;;;4831796;29;20081;-85
2023/06/06 09:45:55;;;;;;;0.40;0.40;;;20.60;99.90;;;;;;4829967;29;20053;-84
2023/06/06 09:48:27;;;;;;;0.80;0.70;;;20.60;99.90;;;;;;4833174;29;20045;-84
2023/06/06 09:50:53;;;;;;;0.82;0.75;;;20.60;5.20;;;;;;4834610;29;20392;-84
2023/06/06 09:53:24;;;;;;;0.70;0.70;;;20.60;99.90;;;;;;4858889;29;20054;-84
2023/06/06 09:55:50;;;;;;;0.45;0.35;;;20.50;21.60;;;;;;4858478;29;20405;-85
2023/06/06 09:58:17;;;;;;;0.43;0.43;;;20.50;99.90;;;;;;4858434;29;20064;-84
2023/06/06 10:00:47;;;;;;;1.25;0.70;;;20.40;42.80;;;;;;4854178;29;20056;-83
2023/06/06 10:03:19;;;;;;;0.45;0.45;;;20.40;1.00;;;;;;4837998;29;20465;-85
2023/06/06 10:05:49;;;;;;;0.43;0.38;;;20.40;99.90;;;;;;4834648;29;20582;-82
2023/06/06 10:08:19;;;;;;;1.98;0.60;;;20.50;99.90;;;;;;4858820;29;20129;-85
2023/06/06 10:10:46;;;;;;;0.40;0.40;;;20.70;99.90;;;;;;4858034;29;20457;-83
2023/06/06 10:13:19;;;;;;;0.57;0.50;;;20.70;1.00;;;;;;4858520;29;20504;-86
2023/06/06 10:15:46;;;;;;;0.75;0.60;;;20.70;1.00;;;;;;4833726;29;20084;-82
2023/06/06 10:18:12;;;;;;;0.57;0.57;;;20.70;99.90;;;;;;4840007;29;20080;-85
2023/06/06 10:20:43;;;;;;;;;;;20.70;1.00;;;;;;4858783;29;20064;-85
2023/06/06 10:23:09;;;;;;;0.50;0.50;;;20.80;1.00;;;;;;4833530;29;19939;-84
2023/06/06 10:25:37;;;;;;;0.85;0.65;;;20.80;99.90;;;;;;4858240;29;20046;-83
2023/06/06 10:28:22;;;;;;;0.65;0.50;;;20.90;1.00;;;;;;4840538;29;20488;-84
2023/06/06 10:30:56;;;;;;;0.70;0.45;;;20.90;1.00;;;;;;4858381;29;20042;-82
2023/06/06 10:33:43;;;;;;;0.50;0.50;;;20.90;1.00;;;;;;4858048;29;20085;-84
2023/06/06 10:36:13;;;;;;;0.80;0.67;;;20.90;94.90;;;;;;4854759;29;20108;-84
2023/06/06 10:38:39;;;;;;;0.90;0.70;;;20.90;99.90;;;;;;4858468;29;20068;-85
2023/06/06 10:41:17;;;;;;;0.68;0.50;;;21.00;99.90;;;;;;4838110;29;20049;-85
2023/06/06 10:43:43;;;;;;;0.60;0.50;;;20.90;99.90;;;;;;4858388;29;20184;-84
2023/06/06 10:46:11;;;;;;;0.50;0.50;;;20.90;99.90;;;;;;4850915;29;20528;-85
2023/06/06 10:48:45;;;;;;;1.45;0.90;;;21.00;99.90;;;;;;4856708;29;20050;-86
2023/06/06 10:51:29;;;;;;;0.65;0.65;;;21.20;99.90;;;;;;4861439;29;20037;-86
2023/06/06 10:54:16;;;;;;;0.65;0.65;;;21.30;1.00;;;;;;4861521;29;20045;-86
2023/06/06 10:56:53;;;;;;;0.55;0.52;;;21.40;1.00;;;;;;4827391;29;20133;-90
2023/06/06 10:59:31;;;;;;;0.43;0.38;;;21.50;99.90;;;;;;4861319;29;20041;-90
2023/06/06 11:01:58;;;;;;;0.88;0.50;;;21.50;16.70;;;;;;4842675;29;20117;-90
2023/06/06 11:04:27;;;;;;;0.73;0.65;;;21.40;99.90;;;;;;4861179;29;20092;-89
2023/06/06 11:06:59;;;;;;;0.60;0.43;;;21.50;99.90;;;;;;4826099;29;20489;-86
2023/06/06 11:09:29;;;;;;;0.70;0.68;;;21.60;99.90;;;;;;4844011;29;20144;-89
2023/06/06 11:12:13;;;;;;;0.50;0.50;;;21.60;33.10;;;;;;4842790;29;20132;-88
2023/06/06 11:14:58;;;;;;;1.00;0.70;;;21.60;1.00;;;;;;4820706;29;20112;-89
2023/06/06 11:17:45;;;;;;;1.42;0.70;;;21.70;56.40;;;;;;4838593;29;20061;-89
2023/06/06 11:20:17;;;;;;;;;;;21.70;1.00;;;;;;4825807;29;20054;-89
2023/06/06 11:23:02;;;;;;;0.98;0.70;;;21.70;99.90;;;;;;4828053;29;19932;-90
2023/06/06 11:25:38;;;;;;;0.75;0.75;;;21.70;99.90;;;;;;4825304;29;20053;-88
2023/06/06 11:28:05;;;;;;;0.47;0.47;;;21.80;1.00;;;;;;4826326;29;20058;-91
2023/06/06 11:30:35;;;;;;;0.40;0.40;;;21.90;99.90;;;;;;4827349;29;20061;-89
2023/06/06 11:33:11;;;;;;;0.52;0.47;;;21.90;11.80;;;;;;4828250;29;20046;-90
2023/06/06 11:35:40;;;;;;;0.60;0.60;;;21.90;1.00;;;;;;4826169;29;20134;-89
2023/06/06 11:38:06;;;;;;;0.32;0.32;;;21.80;1.00;;;;;;4813167;29;20065;-89
2023/06/06 11:40:32;;;;;;;1.38;0.82;;;21.80;96.70;;;;;;4854454;29;20042;-90
2023/06/06 11:42:58;;;;;;;0.68;0.50;;;21.90;96.20;;;;;;4826660;29;20400;-86
2023/06/06 11:45:25;;;;;;;1.05;0.63;;;22.00;98.60;;;;;;4813987;29;20045;-89
2023/06/06 11:47:51;;;;;;;0.45;0.45;;;22.10;99.90;;;;;;4826209;29;20085;-90
2023/06/06 11:50:27;;;;;;;0.60;0.50;;;22.20;1.00;;;;;;4824754;29;20349;-92
2023/06/06 11:52:53;;;;;;;0.50;0.50;;;22.30;99.90;;;;;;4809362;29;20508;-92
2023/06/06 11:55:19;;;;;;;0.60;0.57;;;22.30;1.00;;;;;;4825974;29;20042;-91
2023/06/06 11:57:45;;;;;;;0.35;0.35;;;22.30;1.00;;;;;;4830125;29;20046;-91
2023/06/06 12:00:16;;;;;;;0.80;0.80;;;22.30;99.90;;;;;;4826099;29;20449;-84
2023/06/06 12:02:47;;;;;;;0.57;0.57;;;22.30;1.00;;;;;;4829778;29;20408;-86
2023/06/06 12:05:21;;;;;;;0.80;0.80;;;22.30;99.90;;;;;;4861052;29;20065;-86
2023/06/06 12:07:49;;;;;;;0.40;0.40;;;22.30;99.90;;;;;;4846249;29;20049;-87
2023/06/06 12:10:30;;;;;;;0.57;0.57;;;22.40;99.90;;;;;;4861985;29;20053;-86
2023/06/06 12:12:56;;;;;;;1.25;0.52;;;22.30;99.90;;;;;;4862268;29;20477;-86
2023/06/06 12:15:27;;;;;;;0.60;0.60;;;22.20;99.90;;;;;;4861959;29;20095;-87
2023/06/06 12:18:00;;;;;;;0.55;0.55;;;22.20;99.90;;;;;;4862335;29;20153;-86
2023/06/06 12:20:26;;;;;;;0.60;0.60;;;22.10;99.90;;;;;;4835036;29;20062;-88
2023/06/06 12:22:53;;;;;;;0.55;0.35;;;22.10;99.90;;;;;;4853906;29;20050;-87
2023/06/06 12:25:28;;;;;;;0.57;0.57;;;22.30;1.00;;;;;;4845637;29;20057;-88
2023/06/06 12:28:06;;;;;;;0.77;0.70;;;22.50;99.90;;;;;;4825807;29;20546;-88
2023/06/06 12:30:33;;;;;;;1.05;0.88;;;22.30;99.90;;;;;;4812719;29;20062;-87
2023/06/06 12:33:02;;;;;;;0.75;0.50;;;22.30;99.90;;;;;;4843658;29;20050;-89
2023/06/06 12:35:28;;;;;;;0.90;0.75;;;22.40;99.90;;;;;;4841806;29;20136;-91
2023/06/06 12:37:55;;;;;;;0.70;0.70;;;22.50;99.90;;;;;;4837739;29;20125;-88
2023/06/06 12:40:33;;;;;;;0.68;0.60;;;22.60;99.90;;;;;;4827217;29;20386;-84
2023/06/06 12:43:04;;;;;;;1.05;0.95;;;22.40;99.90;;;;;;4828335;29;20085;-85
2023/06/06 12:45:35;;;;;;;0.45;0.45;;;22.40;99.90;;;;;;4812694;29;20057;-91
2023/06/06 12:48:00;;;;;;;0.80;0.68;;;22.40;99.90;;;;;;4844166;29;20076;-87
2023/06/06 12:50:26;;;;;;;2.25;0.82;;;22.40;99.90;;;;;;4826791;29;20550;-87
2023/06/06 12:52:53;;;;;;;0.70;0.70;;;22.30;99.90;;;;;;4815347;29;20057;-87
2023/06/06 12:55:18;;;;;;;1.42;1.02;;;22.20;94.60;;;;;;4844301;29;20046;-86
2023/06/06 12:57:45;;;;;;;1.15;0.52;;;22.10;99.90;;;;;;4800141;29;20413;-86
2023/06/06 13:00:13;;;;;;;1.35;1.00;;;22.10;99.90;;;;;;4825877;29;20046;-85
2023/06/06 13:02:40;;;;;;;0.50;0.50;;;22.10;99.90;;;;;;4826787;29;20257;-84